Time;durP1;ratioP1;P1;durP2;ratioP2;P2;SDS_P1;SDS_P2;PMS_P1;PMS_P2;Temp;Humidity;BMP_temperature;BMP_pressure;BME280_temperature;BME280_humidity;BME280_pressure;Samples;Min_cycle;Max_cycle;Signal;HPM_P1;HPM_P2
2023/09/10 00:00:52;;;;;;;4.70;4.30;;;;;;;15.27;78.29;100408.11;108686;1253;72938;-62
2023/09/10 00:03:20;;;;;;;4.50;3.60;;;;;;;15.24;77.82;100409.99;108693;1250;59865;-62
2023/09/10 00:05:47;;;;;;;4.70;4.20;;;;;;;15.24;77.09;100410.36;108740;1250;60049;-61
2023/09/10 00:08:15;;;;;;;7.40;4.40;;;;;;;15.23;77.33;100412.02;108680;1251;74543;-62
2023/09/10 00:10:43;;;;;;;5.00;3.80;;;;;;;15.20;77.73;100412.12;108691;1251;69366;-62
2023/09/10 00:13:10;;;;;;;5.10;4.20;;;;;;;15.15;77.94;100413.77;108674;1251;71347;-62
2023/09/10 00:15:38;;;;;;;;;;;;;;;15.10;77.93;100413.52;108736;1250;60326;-62
2023/09/10 00:18:07;;;;;;;9.10;4.50;;;;;;;15.05;78.29;100413.05;108701;1251;58821;-62
2023/09/10 00:20:35;;;;;;;6.50;4.50;;;;;;;15.02;77.79;100415.30;108723;1251;74588;-62
2023/09/10 00:23:03;;;;;;;5.40;4.30;;;;;;;14.99;77.60;100417.56;108705;1251;69871;-62
2023/09/10 00:25:31;;;;;;;5.90;4.30;;;;;;;14.98;77.51;100418.35;108709;1251;72455;-62
2023/09/10 00:27:58;;;;;;;6.40;4.20;;;;;;;15.01;78.06;100421.19;108696;1251;60012;-62
2023/09/10 00:30:28;;;;;;;6.20;4.50;;;;;;;15.00;78.28;100423.00;108722;1251;59655;-61
2023/09/10 00:32:57;;;;;;;10.70;4.60;;;;;;;14.95;79.76;100426.39;108733;1250;73666;-61
2023/09/10 00:35:25;;;;;;;5.30;4.30;;;;;;;14.94;80.24;100426.13;108769;1250;69751;-61
2023/09/10 00:37:52;;;;;;;5.90;4.80;;;;;;;14.91;80.42;100423.62;108695;1253;72759;-61
2023/09/10 00:40:20;;;;;;;7.50;4.10;;;;;;;14.88;80.82;100422.69;108688;1250;59733;-61
2023/09/10 00:42:48;;;;;;;6.40;4.30;;;;;;;14.82;81.62;100420.35;108621;1251;59842;-61
2023/09/10 00:45:16;;;;;;;5.60;4.20;;;;;;;14.78;82.06;100421.23;108414;1251;72640;-60
2023/09/10 00:47:45;;;;;;;6.60;4.50;;;;;;;14.76;82.54;100421.48;108591;1251;69052;-61
2023/09/10 00:50:16;;;;;;;8.40;4.90;;;;;;;14.77;83.55;100424.98;108633;1251;72861;-62
2023/09/10 00:55:29;;;;;;;6.70;4.40;;;;;;;14.32;91.86;100431.98;101267;1293;600716;-64
2023/09/10 00:57:57;;;;;;;6.10;4.50;;;;;;;14.65;86.95;100425.75;103476;1270;60167;-62
2023/09/10 01:00:26;;;;;;;6.70;4.10;;;;;;;14.61;85.96;100424.67;103283;1276;60067;-61
2023/09/10 01:02:53;;;;;;;6.40;4.20;;;;;;;14.58;85.82;100430.64;103637;1285;72050;-60
2023/09/10 01:05:21;;;;;;;;;;;;;;;14.62;85.50;100427.96;103267;1273;69872;-60
2023/09/10 01:07:49;;;;;;;;;;;;;;;14.61;85.27;100428.23;103519;1288;72424;-60
2023/09/10 01:10:17;;;;;;;;;;;;;;;14.54;85.72;100426.77;103723;1269;230978;-59
2023/09/10 01:12:55;;;;;;;7.80;4.10;;;;;;;14.46;85.39;100430.49;103523;1264;59468;-61
2023/09/10 01:15:27;;;;;;;4.40;3.80;;;;;;;14.41;84.48;100427.71;103879;1267;71950;-60
2023/09/10 01:18:17;;;;;;;4.70;4.30;;;;;;;14.37;84.78;100427.00;103920;1269;69019;-60
2023/09/10 01:20:54;;;;;;;9.10;4.50;;;;;;;14.31;86.06;100431.48;103864;1268;72210;-60
2023/09/10 01:23:25;;;;;;;5.40;4.20;;;;;;;14.31;85.05;100426.03;103897;1270;61778;-60
2023/09/10 01:25:53;;;;;;;5.00;4.30;;;;;;;14.27;84.91;100423.75;103948;1264;60161;-60
2023/09/10 01:28:21;;;;;;;8.90;4.80;;;;;;;14.21;85.10;100427.41;103670;1269;72897;-60
2023/09/10 01:30:49;;;;;;;6.00;4.10;;;;;;;14.18;85.13;100430.18;104002;1271;70096;-60
2023/09/10 01:33:23;;;;;;;;;;;;;;;14.17;85.23;100430.18;103638;1286;72953;-60
2023/09/10 01:36:22;;;;;;;5.70;4.40;;;;;;;14.16;86.64;100428.48;104999;1264;62443;-60
2023/09/10 01:38:57;;;;;;;5.10;4.50;;;;;;;14.13;88.28;100427.04;103837;1263;59782;-60
2023/09/10 01:41:25;;;;;;;5.70;4.70;;;;;;;14.13;88.40;100427.59;103473;1271;72845;-60
2023/09/10 01:43:55;;;;;;;5.40;4.40;;;;;;;14.08;88.75;100431.84;105364;1264;70116;-61
2023/09/10 01:46:23;;;;;;;6.10;4.40;;;;;;;14.08;89.40;100429.90;104001;1271;72389;-60
2023/09/10 01:48:51;;;;;;;5.30;4.60;;;;;;;14.06;89.98;100431.09;103384;1272;61399;-60
2023/09/10 01:51:19;;;;;;;5.40;4.80;;;;;;;14.05;89.64;100432.86;103868;1278;59837;-61
2023/09/10 01:53:46;;;;;;;6.00;4.40;;;;;;;14.06;89.90;100432.14;103798;1264;72054;-60
2023/09/10 01:56:15;;;;;;;5.50;4.10;;;;;;;14.05;90.53;100433.23;103800;1286;69673;-60
2023/09/10 01:58:43;;;;;;;8.90;4.20;;;;;;;14.04;90.70;100433.27;103750;1269;72923;-60
2023/09/10 02:01:13;;;;;;;5.00;4.50;;;;;;;13.98;90.90;100434.75;103868;1267;61421;-59
2023/09/10 02:03:43;;;;;;;6.90;4.50;;;;;;;13.94;90.90;100430.86;103963;1264;59449;-60
2023/09/10 02:06:11;;;;;;;6.10;4.30;;;;;;;13.96;90.39;100433.27;103899;1267;72880;-59
2023/09/10 02:08:40;;;;;;;6.50;4.60;;;;;;;13.94;90.71;100434.41;107209;1263;69699;-61
2023/09/10 02:11:12;;;;;;;5.90;4.40;;;;;;;13.97;91.48;100433.92;107220;1262;72393;-61
2023/09/10 02:13:41;;;;;;;6.30;4.30;;;;;;;13.94;92.64;100434.41;107219;1261;61403;-60
2023/09/10 02:16:08;;;;;;;7.10;4.90;;;;;;;13.91;93.18;100431.20;107280;1263;59010;-61
2023/09/10 02:18:36;;;;;;;5.50;4.60;;;;;;;13.90;94.04;100431.60;106886;1263;72852;-60
2023/09/10 02:21:10;;;;;;;8.60;4.00;;;;;;;13.88;94.73;100431.88;107203;1262;69273;-60
2023/09/10 02:23:42;;;;;;;6.00;4.40;;;;;;;13.86;95.33;100430.90;107035;1263;72365;-61
2023/09/10 02:26:09;;;;;;;5.40;4.40;;;;;;;13.84;95.90;100431.48;107165;1263;61398;-60
2023/09/10 02:28:37;;;;;;;7.30;4.50;;;;;;;13.88;94.99;100434.30;107099;1263;60165;-60
2023/09/10 02:31:09;;;;;;;7.10;4.80;;;;;;;13.84;94.94;100433.61;107168;1263;73734;-60
2023/09/10 02:33:37;;;;;;;8.00;5.50;;;;;;;13.81;95.10;100434.45;107102;1262;68275;-60
2023/09/10 02:36:07;;;;;;;7.90;5.30;;;;;;;13.83;95.49;100435.77;107182;1263;73307;-60
2023/09/10 02:38:36;;;;;;;6.60;4.90;;;;;;;13.84;95.49;100438.36;107222;1263;61456;-60
2023/09/10 02:41:04;;;;;;;8.40;5.90;;;;;;;13.86;95.43;100433.36;107220;1263;60206;-59
2023/09/10 02:43:34;;;;;;;8.20;6.00;;;;;;;13.82;96.14;100431.77;107110;1263;72823;-60
2023/09/10 02:46:03;;;;;;;6.80;5.50;;;;;;;13.82;96.68;100430.16;107091;1262;70828;-60
2023/09/10 02:48:31;;;;;;;9.10;6.30;;;;;;;13.86;96.17;100428.92;106882;1263;72376;-60
2023/09/10 02:50:58;;;;;;;11.10;6.10;;;;;;;13.83;96.22;100431.20;107110;1263;61451;-59
2023/09/10 02:53:26;;;;;;;8.70;5.90;;;;;;;13.81;97.04;100432.30;107177;1263;60146;-59
2023/09/10 02:56:00;;;;;;;9.50;5.60;;;;;;;13.77;97.77;100433.73;106877;1264;73532;-59
2023/09/10 02:58:29;;;;;;;10.10;5.90;;;;;;;13.75;98.68;100432.23;107024;1264;68122;-59
2023/09/10 03:01:03;;;;;;;7.80;6.30;;;;;;;13.83;98.78;100429.96;107132;1263;72502;-59
2023/09/10 03:03:32;;;;;;;11.80;7.10;;;;;;;13.85;99.28;100428.98;106835;1265;61416;-59
2023/09/10 03:06:00;;;;;;;8.30;6.70;;;;;;;13.85;99.52;100429.88;106828;1264;59680;-59
2023/09/10 03:08:35;;;;;;;8.80;6.40;;;;;;;13.80;99.53;100429.20;107071;1263;71610;-59
2023/09/10 03:11:06;;;;;;;9.20;6.50;;;;;;;13.81;99.71;100433.23;107072;1263;69453;-59
2023/09/10 03:13:34;;;;;;;7.10;6.40;;;;;;;13.81;99.31;100434.98;106843;1264;72495;-59
2023/09/10 03:16:03;;;;;;;9.30;6.90;;;;;;;13.78;98.98;100435.98;107030;1265;61471;-59
2023/09/10 03:18:32;;;;;;;9.50;6.90;;;;;;;13.82;98.62;100435.80;107122;1264;59820;-59
2023/09/10 03:21:02;;;;;;;10.60;7.10;;;;;;;13.82;99.22;100436.69;106792;1264;72901;-59
2023/09/10 03:23:30;;;;;;;9.80;7.20;;;;;;;13.86;98.89;100441.08;106829;1263;69190;-59
2023/09/10 03:25:57;;;;;;;10.10;6.40;;;;;;;13.86;97.95;100439.02;107056;1264;72456;-59
2023/09/10 03:28:25;;;;;;;;;;;;;;;13.80;98.03;100439.05;107431;1262;60749;-59
2023/09/10 03:30:58;;;;;;;9.60;6.60;;;;;;;13.68;99.33;100440.46;107198;1261;59895;-59
2023/09/10 03:33:26;;;;;;;8.10;6.20;;;;;;;13.62;99.03;100441.05;107448;1261;72974;-59
2023/09/10 03:35:53;;;;;;;8.50;6.40;;;;;;;13.62;99.28;100443.00;107475;1260;69143;-58
2023/09/10 03:38:21;;;;;;;8.80;6.70;;;;;;;13.64;98.82;100443.98;108591;1250;73365;-59
2023/09/10 03:40:49;;;;;;;;;;;;;;;13.67;98.37;100446.33;108624;1251;60684;-59
2023/09/10 03:43:17;;;;;;;;;;;;;;;13.68;99.64;100449.46;108694;1251;59860;-58
2023/09/10 03:45:44;;;;;;;8.60;6.10;;;;;;;13.66;100.00;100449.22;108536;1252;73714;-59
2023/09/10 03:48:13;;;;;;;;;;;;;;;13.65;99.60;100446.58;108453;1252;68429;-59
2023/09/10 03:50:40;;;;;;;7.90;6.40;;;;;;;13.67;100.00;100448.98;108498;1252;72239;-59
2023/09/10 03:53:08;;;;;;;8.00;6.00;;;;;;;13.67;99.77;100449.16;108354;1252;61397;-59
2023/09/10 03:55:36;;;;;;;;;;;;;;;13.70;99.74;100450.08;108607;1251;59909;-59
2023/09/10 03:58:03;;;;;;;9.80;5.90;;;;;;;13.66;100.00;100451.83;108490;1251;73026;-59
2023/09/10 04:00:34;;;;;;;6.50;5.10;;;;;;;13.68;100.00;100451.38;108408;1250;69410;-60
2023/09/10 04:03:04;;;;;;;8.10;5.10;;;;;;;13.72;99.96;100452.63;108505;1249;72292;-60
2023/09/10 04:05:32;;;;;;;10.00;6.20;;;;;;;13.78;99.96;100452.38;108642;1250;62320;-60
2023/09/10 04:08:01;;;;;;;8.70;5.80;;;;;;;13.81;99.09;100448.89;108491;1250;59676;-61
2023/09/10 04:10:29;;;;;;;9.20;5.80;;;;;;;13.83;99.36;100449.33;108502;1249;72900;-60
2023/09/10 04:12:57;;;;;;;7.10;5.20;;;;;;;13.87;99.47;100452.16;108522;1250;68823;-60
2023/09/10 04:15:24;;;;;;;7.00;5.40;;;;;;;13.89;99.45;100452.95;108704;1250;72887;-60
2023/09/10 04:17:52;;;;;;;7.20;5.20;;;;;;;13.97;98.75;100456.11;108672;1250;60378;-61
2023/09/10 04:20:21;;;;;;;6.30;5.10;;;;;;;14.04;97.75;100458.29;108635;1249;60100;-60
2023/09/10 04:22:48;;;;;;;7.10;4.40;;;;;;;14.10;97.00;100458.57;108502;1250;73298;-60
2023/09/10 04:25:16;;;;;;;8.00;5.00;;;;;;;14.10;97.48;100458.35;108714;1250;69605;-60
2023/09/10 04:27:44;;;;;;;7.70;5.40;;;;;;;14.20;98.57;100456.88;108648;1250;72579;-60
2023/09/10 04:30:11;;;;;;;9.50;5.70;;;;;;;14.27;98.99;100457.64;108708;1250;61427;-60
2023/09/10 04:32:39;;;;;;;5.50;5.00;;;;;;;14.33;99.64;100454.55;108710;1250;60108;-60
2023/09/10 04:35:09;;;;;;;6.80;5.10;;;;;;;14.40;99.77;100455.63;108487;1250;72897;-61
2023/09/10 04:37:40;;;;;;;8.40;5.10;;;;;;;14.46;99.99;100459.23;108704;1250;69036;-61
2023/09/10 04:40:08;;;;;;;9.20;5.80;;;;;;;14.54;100.00;100458.69;108730;1249;73010;-63
2023/09/10 04:42:36;;;;;;;7.20;5.60;;;;;;;14.63;100.00;100458.48;108698;1250;62387;-62
2023/09/10 04:45:04;;;;;;;8.80;5.40;;;;;;;14.70;100.00;100455.15;108578;1252;60629;-62
2023/09/10 04:47:32;;;;;;;8.60;5.10;;;;;;;14.79;100.00;100456.14;108318;1251;72902;-62
2023/09/10 04:50:00;;;;;;;6.60;5.10;;;;;;;14.88;100.00;100450.42;108457;1250;68557;-61
2023/09/10 04:52:29;;;;;;;7.10;5.20;;;;;;;15.00;100.00;100451.77;108478;1250;73455;-60
2023/09/10 04:54:57;;;;;;;6.70;4.90;;;;;;;15.11;100.00;100451.78;108633;1249;60390;-60
2023/09/10 04:57:25;;;;;;;;;;;;;;;15.20;100.00;100451.14;108569;1249;60774;-60
2023/09/10 04:59:53;;;;;;;8.80;5.90;;;;;;;15.30;100.00;100452.45;108595;1249;72897;-60
2023/09/10 05:02:21;;;;;;;6.20;5.20;;;;;;;15.35;100.00;100452.00;108502;1249;69256;-60
2023/09/10 05:04:53;;;;;;;7.60;5.50;;;;;;;15.42;100.00;100450.96;108654;1250;72563;-59
2023/09/10 05:07:21;;;;;;;6.50;4.80;;;;;;;15.48;100.00;100451.70;108650;1251;61401;-60
2023/09/10 05:09:49;;;;;;;6.90;5.30;;;;;;;15.58;100.00;100453.16;108683;1251;59749;-59
2023/09/10 05:12:17;;;;;;;5.90;5.10;;;;;;;15.67;100.00;100453.61;108364;1251;73940;-59
2023/09/10 05:14:47;;;;;;;11.50;5.80;;;;;;;15.79;100.00;100453.92;108595;1251;68791;-60
2023/09/10 05:17:14;;;;;;;6.40;5.70;;;;;;;15.89;100.00;100457.27;108402;1251;72899;-60
2023/09/10 05:19:43;;;;;;;7.70;6.30;;;;;;;15.99;100.00;100459.02;108493;1249;60422;-59
2023/09/10 05:22:10;;;;;;;6.80;6.00;;;;;;;16.12;100.00;100459.61;108457;1251;59670;-60
2023/09/10 05:24:38;;;;;;;6.70;5.40;;;;;;;16.24;100.00;100460.94;108538;1250;74019;-60
2023/09/10 05:27:06;;;;;;;6.70;6.00;;;;;;;16.32;100.00;100454.97;108551;1251;69424;-60
2023/09/10 05:29:33;;;;;;;5.50;5.00;;;;;;;16.38;100.00;100452.59;108570;1251;72455;-62
2023/09/10 05:32:01;;;;;;;6.10;5.00;;;;;;;16.43;100.00;100451.43;108355;1251;61016;-61
2023/09/10 05:34:29;;;;;;;;;;;;;;;16.49;100.00;100450.15;108551;1251;59678;-61
2023/09/10 05:40:03;;;;;;;6.40;4.80;;;;;;;16.76;100.00;100448.35;101243;1295;601565;-59
2023/09/10 05:42:31;;;;;;;7.10;5.40;;;;;;;16.91;100.00;100449.50;103578;1269;60606;-59
2023/09/10 05:44:59;;;;;;;;;;;;;;;16.98;100.00;100450.34;103547;1271;59746;-59
2023/09/10 05:47:27;;;;;;;6.30;4.80;;;;;;;17.03;100.00;100456.27;103613;1272;71996;-60
2023/09/10 05:49:59;;;;;;;6.10;5.40;;;;;;;17.05;99.86;100458.09;103405;1272;69340;-59
2023/09/10 05:52:27;;;;;;;8.30;5.50;;;;;;;17.08;99.46;100459.67;103822;1268;72359;-59
2023/09/10 05:54:55;;;;;;;5.40;4.90;;;;;;;17.18;99.74;100463.74;103642;1286;61637;-59
2023/09/10 05:57:22;;;;;;;11.60;5.90;;;;;;;17.29;99.82;100464.67;103758;1269;60502;-59
2023/09/10 05:59:50;;;;;;;10.20;5.50;;;;;;;17.39;99.21;100466.77;103579;1264;72924;-59
2023/09/10 06:02:18;;;;;;;7.90;5.50;;;;;;;17.46;97.33;100464.78;104055;1269;69223;-59
2023/09/10 06:04:46;;;;;;;;;;;;;;;17.53;95.32;100467.05;104049;1279;71710;-60
2023/09/10 06:07:14;;;;;;;4.50;3.90;;;;;;;17.56;96.24;100470.60;104321;1257;61484;-59
2023/09/10 06:09:41;;;;;;;6.50;4.60;;;;;;;17.61;92.95;100471.35;104165;1258;59799;-60
2023/09/10 06:12:09;;;;;;;9.00;4.60;;;;;;;17.66;92.02;100475.47;104229;1261;72220;-60
2023/09/10 06:14:38;;;;;;;8.70;4.40;;;;;;;17.75;91.26;100477.77;104076;1263;69650;-61
2023/09/10 06:17:06;;;;;;;5.90;4.10;;;;;;;17.86;89.66;100478.55;104213;1257;72510;-60
2023/09/10 06:19:34;;;;;;;8.00;4.10;;;;;;;17.95;87.80;100477.16;104246;1276;60922;-60
2023/09/10 06:22:03;;;;;;;7.00;4.10;;;;;;;18.05;86.69;100478.83;104131;1260;59711;-60
2023/09/10 06:24:30;;;;;;;;;;;;;;;18.14;86.05;100474.79;104204;1279;72750;-60
2023/09/10 06:26:58;;;;;;;6.00;4.30;;;;;;;18.24;86.62;100476.84;103880;1258;68129;-60
2023/09/10 06:29:26;;;;;;;6.00;3.70;;;;;;;18.34;85.40;100476.06;104167;1279;72330;-60
2023/09/10 06:31:54;;;;;;;6.30;3.50;;;;;;;18.44;83.83;100476.33;104041;1260;61421;-61
2023/09/10 06:34:22;;;;;;;4.20;3.30;;;;;;;18.53;80.37;100474.51;104269;1260;60607;-60
2023/09/10 06:36:50;;;;;;;4.30;3.50;;;;;;;18.61;76.34;100473.77;104239;1260;72940;-60
2023/09/10 06:39:17;;;;;;;;;;;;;;;18.71;75.36;100477.08;104055;1272;69712;-61
2023/09/10 06:41:46;;;;;;;;;;;;;;;18.79;72.10;100476.77;104215;1258;72423;-61
2023/09/10 06:44:14;;;;;;;4.10;2.50;;;;;;;18.83;70.72;100476.17;104039;1261;59740;-59
2023/09/10 06:46:42;;;;;;;3.20;2.50;;;;;;;18.88;69.87;100478.02;104108;1256;60323;-59
2023/09/10 06:49:10;;;;;;;2.60;2.40;;;;;;;18.90;69.92;100474.13;103985;1263;72905;-60
2023/09/10 06:51:39;;;;;;;3.00;2.50;;;;;;;18.98;68.64;100475.57;104164;1263;69154;-60
2023/09/10 06:54:07;;;;;;;5.30;2.60;;;;;;;19.07;68.47;100468.06;104044;1263;72914;-60
2023/09/10 06:56:35;;;;;;;4.70;2.10;;;;;;;19.16;68.71;100472.08;103938;1263;60210;-60
2023/09/10 06:59:02;;;;;;;2.90;2.20;;;;;;;19.27;66.70;100470.34;104019;1263;60079;-60
2023/09/10 07:01:30;;;;;;;3.60;2.20;;;;;;;19.40;65.96;100465.73;104013;1263;72864;-60
2023/09/10 07:03:58;;;;;;;2.60;1.70;;;;;;;19.48;63.77;100468.08;103999;1280;69413;-60
2023/09/10 07:06:26;;;;;;;2.60;2.00;;;;;;;19.53;61.54;100462.91;103999;1280;72464;-60
2023/09/10 07:08:53;;;;;;;2.10;2.00;;;;;;;19.58;62.52;100459.88;104016;1263;60819;-59
2023/09/10 07:11:21;;;;;;;2.00;1.70;;;;;;;19.70;61.38;100459.63;104193;1259;60176;-60
2023/09/10 07:13:49;;;;;;;3.70;1.80;;;;;;;19.82;60.92;100458.30;104185;1257;72840;-60
2023/09/10 07:16:17;;;;;;;2.80;2.20;;;;;;;19.93;60.80;100456.16;104209;1264;69257;-60
2023/09/10 07:18:44;;;;;;;;;;;;;;;20.01;59.67;100457.02;104240;1262;71385;-59
2023/09/10 07:21:12;;;;;;;;;;;;;;;20.08;59.60;100455.59;103991;1263;59850;-60
2023/09/10 07:23:40;;;;;;;3.60;2.30;;;;;;;20.14;60.07;100456.12;104016;1262;59825;-60
2023/09/10 07:26:08;;;;;;;2.10;1.90;;;;;;;20.20;60.18;100457.25;104157;1263;73006;-59
2023/09/10 07:28:35;;;;;;;2.80;1.60;;;;;;;20.27;59.50;100457.16;103939;1263;69649;-60
2023/09/10 07:31:04;;;;;;;2.20;1.50;;;;;;;20.38;56.93;100457.09;104004;1258;71842;-60
2023/09/10 07:33:31;;;;;;;;;;;;;;;20.41;54.77;100453.84;104020;1263;60426;-59
2023/09/10 07:35:59;;;;;;;;;;;;;;;20.46;56.22;100456.66;104041;1262;59698;-60
2023/09/10 07:38:28;;;;;;;2.30;1.80;;;;;;;20.51;53.99;100456.90;103991;1263;72734;-60
2023/09/10 07:40:56;;;;;;;;;;;;;;;20.52;55.27;100455.90;104211;1263;68391;-59
2023/09/10 07:43:24;;;;;;;;;;;;;;;20.56;53.37;100454.00;104013;1261;72936;-60
2023/09/10 07:45:52;;;;;;;3.30;1.80;;;;;;;20.64;55.34;100455.29;104059;1261;59842;-61
2023/09/10 07:48:20;;;;;;;3.80;2.20;;;;;;;20.72;54.94;100452.52;104236;1265;60102;-60
2023/09/10 07:50:55;;;;;;;2.40;1.60;;;;;;;20.81;54.37;100451.34;104240;1279;73104;-60
2023/09/10 07:53:23;;;;;;;2.00;1.70;;;;;;;20.90;53.83;100444.83;104176;1263;69981;-60
2023/09/10 07:55:51;;;;;;;2.40;1.60;;;;;;;20.97;53.67;100441.98;104014;1258;72739;-60
2023/09/10 07:58:19;;;;;;;;;;;;;;;21.07;53.24;100445.19;103927;1263;59897;-60
2023/09/10 08:00:47;;;;;;;3.40;1.60;;;;;;;21.17;52.53;100441.25;104044;1262;59765;-59
2023/09/10 08:03:17;;;;;;;;;;;;;;;21.21;52.79;100442.88;104206;1280;73204;-59
2023/09/10 08:05:46;;;;;;;4.80;1.70;;;;;;;21.30;52.53;100441.67;104001;1263;68143;-58
2023/09/10 08:08:14;;;;;;;;;;;;;;;21.35;51.21;100438.48;104021;1258;72485;-58
2023/09/10 08:10:42;;;;;;;;;;;;;;;21.42;51.68;100438.65;104025;1258;59899;-59
2023/09/10 08:13:12;;;;;;;1.90;1.60;;;;;;;21.50;51.83;100439.48;104085;1261;59860;-62
2023/09/10 08:15:43;;;;;;;2.80;1.90;;;;;;;21.53;51.74;100435.33;104020;1263;72836;-60
2023/09/10 08:18:12;;;;;;;4.70;1.70;;;;;;;21.60;50.95;100428.22;103973;1265;70081;-59
2023/09/10 08:20:42;;;;;;;4.20;1.90;;;;;;;21.65;51.05;100428.55;104172;1257;71130;-59
2023/09/10 08:23:10;;;;;;;;;;;;;;;21.73;50.51;100428.66;104163;1263;60198;-60
2023/09/10 08:25:39;;;;;;;5.10;2.20;;;;;;;21.80;50.80;100430.25;104052;1261;59759;-61
2023/09/10 08:28:07;;;;;;;5.80;2.80;;;;;;;21.86;49.68;100426.56;104193;1280;73761;-59
2023/09/10 08:30:35;;;;;;;3.40;2.30;;;;;;;21.94;50.16;100427.75;103936;1263;68582;-59
2023/09/10 08:33:03;;;;;;;;;;;;;;;22.02;49.16;100428.71;104045;1261;72314;-60
2023/09/10 08:35:45;;;;;;;3.30;1.90;;;;;;;22.07;48.28;100426.33;104183;1258;59951;-60
2023/09/10 08:38:13;;;;;;;4.40;1.80;;;;;;;22.11;48.25;100423.19;104224;1260;59835;-60
2023/09/10 08:40:55;;;;;;;4.40;2.10;;;;;;;22.17;48.20;100425.04;104257;1260;72889;-61
2023/09/10 08:43:41;;;;;;;3.60;2.50;;;;;;;22.25;47.45;100422.47;104177;1263;69163;-60
2023/09/10 08:46:10;;;;;;;5.00;2.80;;;;;;;22.32;47.03;100416.55;104149;1279;72890;-61
2023/09/10 08:48:41;;;;;;;3.10;2.70;;;;;;;22.36;47.13;100420.40;104233;1265;60271;-61
2023/09/10 08:51:11;;;;;;;3.90;2.60;;;;;;;22.35;46.16;100417.60;104226;1264;59823;-61
2023/09/10 08:53:40;;;;;;;3.60;2.60;;;;;;;22.35;46.10;100416.50;104034;1262;73377;-63
2023/09/10 08:56:08;;;;;;;3.20;2.20;;;;;;;22.41;46.05;100416.38;104218;1273;69237;-61
2023/09/10 08:58:37;;;;;;;3.00;2.70;;;;;;;22.45;45.60;100414.08;103998;1279;72502;-61
2023/09/10 09:01:06;;;;;;;3.50;3.10;;;;;;;22.50;45.64;100414.20;103987;1262;59844;-61
2023/09/10 09:03:35;;;;;;;4.00;2.80;;;;;;;22.63;45.90;100413.70;103975;1262;59852;-61
2023/09/10 09:06:04;;;;;;;2.80;2.50;;;;;;;22.78;44.88;100413.42;104223;1263;72919;-60
2023/09/10 09:08:34;;;;;;;3.80;2.60;;;;;;;22.81;43.74;100408.89;104176;1263;69217;-60
2023/09/10 09:11:08;;;;;;;5.30;3.10;;;;;;;22.85;43.99;100408.33;104222;1267;73297;-59
2023/09/10 09:13:45;;;;;;;2.60;2.30;;;;;;;22.92;43.78;100407.94;104187;1263;59775;-60
2023/09/10 09:16:13;;;;;;;7.20;2.50;;;;;;;22.99;43.92;100404.71;104265;1258;59756;-61
2023/09/10 09:18:41;;;;;;;3.20;2.80;;;;;;;23.09;43.76;100401.44;104010;1263;72804;-59
2023/09/10 09:21:15;;;;;;;6.30;2.60;;;;;;;23.22;43.49;100400.19;104183;1260;69020;-59
2023/09/10 09:23:56;;;;;;;3.00;2.60;;;;;;;23.34;43.11;100396.23;104291;1259;71986;-59
2023/09/10 09:26:29;;;;;;;3.90;2.90;;;;;;;23.46;42.38;100392.80;104198;1253;60079;-61
2023/09/10 09:28:57;;;;;;;4.20;2.70;;;;;;;23.50;42.46;100391.19;104303;1254;59925;-61
2023/09/10 09:31:25;;;;;;;2.90;2.60;;;;;;;23.53;42.21;100389.10;104280;1276;72779;-59
2023/09/10 09:33:53;;;;;;;7.10;2.30;;;;;;;23.53;42.03;100384.95;104312;1261;69887;-58
2023/09/10 09:36:25;;;;;;;2.80;2.50;;;;;;;23.58;41.74;100383.66;104206;1255;72456;-57
2023/09/10 09:38:52;;;;;;;3.60;2.70;;;;;;;23.63;40.86;100379.73;104274;1254;59790;-58
2023/09/10 09:41:22;;;;;;;2.60;2.40;;;;;;;23.67;40.50;100382.94;104246;1255;59809;-57
2023/09/10 09:43:52;;;;;;;2.90;2.40;;;;;;;23.63;40.02;100381.98;104279;1259;72781;-58
2023/09/10 09:46:20;;;;;;;;;;;;;;;23.63;39.88;100381.27;104336;1268;70001;-57
2023/09/10 09:48:48;;;;;;;3.50;2.20;;;;;;;23.71;39.72;100379.23;104288;1267;73304;-57
2023/09/10 09:51:17;;;;;;;2.50;2.20;;;;;;;23.75;39.56;100380.66;104318;1255;60571;-57
2023/09/10 09:53:45;;;;;;;3.00;2.30;;;;;;;23.81;39.95;100376.21;104316;1254;60555;-57
2023/09/10 09:56:13;;;;;;;2.90;2.60;;;;;;;23.86;39.24;100374.13;108438;1254;74069;-58
2023/09/10 09:58:42;;;;;;;2.70;2.30;;;;;;;23.91;39.14;100373.69;108277;1253;69073;-59
2023/09/10 10:01:10;;;;;;;2.60;2.40;;;;;;;23.88;37.66;100366.86;108385;1253;72353;-58
2023/09/10 10:03:37;;;;;;;4.50;2.10;;;;;;;23.84;38.39;100364.27;108367;1254;60805;-59
2023/09/10 10:06:05;;;;;;;;;;;;;;;23.84;38.77;100364.83;108475;1254;60439;-59
2023/09/10 10:08:33;;;;;;;;;;;;;;;23.95;39.09;100359.80;108260;1257;74520;-58
2023/09/10 10:11:00;;;;;;;3.90;2.10;;;;;;;24.00;37.52;100357.95;108425;1258;69049;-58
2023/09/10 10:13:28;;;;;;;2.10;1.90;;;;;;;24.00;37.57;100353.41;108386;1253;72878;-58
2023/09/10 10:15:56;;;;;;;2.20;2.00;;;;;;;24.01;37.86;100352.04;108428;1253;59814;-58
2023/09/10 10:18:26;;;;;;;4.20;2.20;;;;;;;24.07;37.45;100352.59;108579;1254;59693;-58
2023/09/10 10:20:57;;;;;;;2.10;2.00;;;;;;;24.17;37.41;100350.02;108570;1254;73720;-58
2023/09/10 10:23:25;;;;;;;3.70;1.80;;;;;;;24.22;37.27;100345.70;108449;1254;69184;-59
2023/09/10 10:25:54;;;;;;;2.40;2.20;;;;;;;24.25;37.68;100349.41;108393;1254;72931;-58
2023/09/10 10:28:22;;;;;;;1.60;1.50;;;;;;;24.28;37.50;100347.50;108380;1254;60199;-58
2023/09/10 10:30:59;;;;;;;2.00;1.70;;;;;;;24.31;37.14;100346.04;108399;1254;59688;-58
2023/09/10 10:33:27;;;;;;;;;;;;;;;24.30;36.77;100342.16;108443;1254;74077;-58
2023/09/10 10:36:13;;;;;;;4.70;1.80;;;;;;;24.28;36.79;100337.55;108348;1254;69035;-58
2023/09/10 10:38:44;;;;;;;3.80;2.10;;;;;;;24.32;36.40;100334.15;108382;1254;72379;-58
2023/09/10 10:41:18;;;;;;;2.60;2.30;;;;;;;24.44;36.68;100331.78;108373;1254;60181;-59
2023/09/10 10:43:47;;;;;;;2.30;1.90;;;;;;;24.56;36.11;100330.54;108401;1252;59202;-58
2023/09/10 10:46:14;;;;;;;5.90;2.10;;;;;;;24.53;35.76;100324.52;108421;1254;73715;-59
2023/09/10 10:48:42;;;;;;;2.20;2.00;;;;;;;24.58;36.38;100325.04;108407;1253;69197;-59
2023/09/10 10:51:14;;;;;;;2.40;1.90;;;;;;;24.68;36.37;100327.31;108279;1254;72953;-59
2023/09/10 10:53:43;;;;;;;2.20;1.90;;;;;;;24.77;36.48;100323.80;108371;1254;60905;-59
2023/09/10 10:56:10;;;;;;;3.40;1.80;;;;;;;24.83;36.11;100320.56;108403;1254;59667;-59
2023/09/10 10:58:40;;;;;;;3.80;2.10;;;;;;;24.94;36.10;100317.78;108178;1252;73606;-59
2023/09/10 11:01:07;;;;;;;3.60;2.10;;;;;;;24.99;36.01;100311.53;108379;1254;69605;-58
2023/09/10 11:03:35;;;;;;;6.30;1.90;;;;;;;25.07;35.67;100306.67;108147;1253;73215;-59
2023/09/10 11:06:07;;;;;;;;;;;;;;;25.10;35.40;100303.02;108563;1254;60118;-59
2023/09/10 11:08:39;;;;;;;2.70;1.80;;;;;;;25.16;34.85;100299.25;108407;1253;59408;-59
2023/09/10 11:11:10;;;;;;;2.60;1.80;;;;;;;25.16;34.72;100297.39;108379;1254;73664;-58
2023/09/10 11:14:00;;;;;;;2.70;1.70;;;;;;;25.20;35.44;100295.45;108381;1254;69502;-60
2023/09/10 11:16:31;;;;;;;2.80;1.40;;;;;;;25.25;34.81;100291.73;108418;1254;72545;-58
2023/09/10 11:19:00;;;;;;;1.80;1.70;;;;;;;25.29;35.27;100289.77;108623;1253;60144;-57
2023/09/10 11:21:55;;;;;;;4.30;1.90;;;;;;;25.38;34.91;100288.98;108600;1254;60152;-57
2023/09/10 11:24:23;;;;;;;5.60;1.60;;;;;;;25.40;34.94;100287.50;108589;1253;74345;-57
2023/09/10 11:26:59;;;;;;;2.30;1.60;;;;;;;25.40;35.31;100285.63;108657;1253;69208;-57
2023/09/10 11:29:27;;;;;;;1.80;1.60;;;;;;;25.45;34.76;100283.77;108379;1252;72790;-57
2023/09/10 11:31:55;;;;;;;2.20;1.70;;;;;;;25.50;34.82;100284.44;108284;1254;58915;-57
2023/09/10 11:34:23;;;;;;;2.30;1.70;;;;;;;25.50;34.90;100273.61;108502;1252;60007;-57
2023/09/10 11:36:53;;;;;;;2.70;1.60;;;;;;;25.53;34.98;100276.78;108353;1252;73731;-57
2023/09/10 11:39:20;;;;;;;2.50;1.60;;;;;;;25.57;34.14;100271.63;108602;1253;68082;-57